createdAt,value
2022-08-26T05:02:48.363Z,99.90
2022-08-26T05:05:20.633Z,99.90
2022-08-26T05:07:49.921Z,99.90
2022-08-26T05:10:18.762Z,99.90
2022-08-26T05:12:48.126Z,99.90
2022-08-26T05:15:17.620Z,99.90
2022-08-26T05:17:46.316Z,99.90
2022-08-26T05:20:16.341Z,99.90
2022-08-26T05:22:46.439Z,99.90
2022-08-26T05:25:18.530Z,99.90
2022-08-26T05:27:47.124Z,99.90
2022-08-26T05:30:16.368Z,99.90
2022-08-26T05:32:45.001Z,99.90
2022-08-26T05:35:13.717Z,99.90
2022-08-26T05:37:45.920Z,99.90
2022-08-26T05:40:14.769Z,99.90
2022-08-26T05:42:43.409Z,99.90
2022-08-26T05:45:13.061Z,99.90
2022-08-26T05:47:42.322Z,99.90
2022-08-26T05:50:11.414Z,99.90
2022-08-26T05:52:41.054Z,99.90
2022-08-26T05:55:11.051Z,99.90
2022-08-26T05:57:40.551Z,99.90
2022-08-26T06:00:12.797Z,99.90
2022-08-26T06:02:41.554Z,99.90
2022-08-26T06:05:10.304Z,99.90
2022-08-26T06:07:57.569Z,99.90
2022-08-26T06:10:34.679Z,99.90
2022-08-26T06:13:09.322Z,99.90
2022-08-26T06:15:42.292Z,99.90
2022-08-26T06:18:11.400Z,99.90
2022-08-26T06:20:43.715Z,99.90
2022-08-26T06:23:43.532Z,99.90
2022-08-26T06:26:13.726Z,99.90
2022-08-26T06:28:45.368Z,99.90
2022-08-26T06:31:15.494Z,99.90
2022-08-26T06:33:44.655Z,99.90
2022-08-26T06:36:17.426Z,99.90
2022-08-26T06:38:48.194Z,99.90
2022-08-26T06:41:20.958Z,99.90
2022-08-26T06:43:50.073Z,99.90
2022-08-26T06:46:19.388Z,99.90
2022-08-26T06:48:48.898Z,99.90
2022-08-26T06:51:18.466Z,99.90
2022-08-26T06:53:48.301Z,99.90
2022-08-26T06:56:20.105Z,99.90
2022-08-26T06:58:49.387Z,99.90
2022-08-26T07:01:19.677Z,99.90
2022-08-26T07:03:50.337Z,99.90
2022-08-26T07:06:20.272Z,99.90
2022-08-26T07:08:49.445Z,99.90
2022-08-26T07:11:20.013Z,99.90
2022-08-26T07:13:49.220Z,99.90
2022-08-26T07:16:18.753Z,99.90
2022-08-26T07:18:48.574Z,99.90
2022-08-26T07:21:18.773Z,99.90
2022-08-26T07:23:47.416Z,99.90
2022-08-26T07:26:19.981Z,99.90
2022-08-26T07:28:50.590Z,99.90
2022-08-26T07:31:23.162Z,99.90
2022-08-26T07:33:51.861Z,99.90
2022-08-26T07:36:21.373Z,99.90
2022-08-26T07:38:50.076Z,99.90
2022-08-26T07:41:22.842Z,99.90
2022-08-26T07:43:52.782Z,99.90
2022-08-26T07:46:27.158Z,99.90
2022-08-26T07:48:56.426Z,99.90
2022-08-26T07:51:25.273Z,99.90
2022-08-26T07:53:54.307Z,99.90
2022-08-26T07:56:24.391Z,99.90
2022-08-26T07:58:53.944Z,99.90
2022-08-26T08:01:23.714Z,99.90
2022-08-26T08:03:53.367Z,99.90
2022-08-26T08:06:23.286Z,99.90
2022-08-26T08:08:56.988Z,99.90
2022-08-26T08:11:28.766Z,99.90
2022-08-26T08:13:58.113Z,99.90
2022-08-26T08:16:26.840Z,99.90
2022-08-26T08:18:56.710Z,99.90
2022-08-26T08:21:28.989Z,99.90
2022-08-26T08:23:58.266Z,99.90
2022-08-26T08:26:28.241Z,99.90
2022-08-26T08:28:57.791Z,99.90
2022-08-26T08:34:16.518Z,99.90
2022-08-26T08:36:47.383Z,99.90
2022-08-26T08:39:16.231Z,99.90
2022-08-26T08:41:59.790Z,99.90
2022-08-26T08:44:29.942Z,99.90
2022-08-26T08:47:01.007Z,99.90
2022-08-26T08:49:30.785Z,99.90
2022-08-26T08:52:04.213Z,99.90
2022-08-26T08:54:33.920Z,99.90
2022-08-26T08:57:06.817Z,99.90
2022-08-26T08:59:43.459Z,99.90
2022-08-26T09:02:18.017Z,99.90
2022-08-26T09:05:04.542Z,99.90
2022-08-26T09:07:36.649Z,99.90
2022-08-26T09:10:07.452Z,99.90
2022-08-26T09:12:36.356Z,99.90
2022-08-26T09:15:07.809Z,99.90
2022-08-26T09:17:44.190Z,99.90
2022-08-26T09:20:16.001Z,99.90
2022-08-26T09:22:44.847Z,99.90
2022-08-26T09:25:15.240Z,99.90
2022-08-26T09:27:45.276Z,99.90
2022-08-26T09:30:24.486Z,99.90
2022-08-26T09:32:59.519Z,99.90
2022-08-26T09:35:31.451Z,99.90
2022-08-26T09:38:00.970Z,99.90
2022-08-26T09:40:34.470Z,99.90
2022-08-26T09:43:22.159Z,99.90
2022-08-26T09:45:59.192Z,99.90
2022-08-26T09:48:30.363Z,99.90
2022-08-26T09:51:00.244Z,99.90
2022-08-26T09:53:30.974Z,99.90
2022-08-26T09:56:14.028Z,99.90
2022-08-26T09:58:44.091Z,99.90
2022-08-26T10:01:17.901Z,99.90
2022-08-26T10:03:49.008Z,99.90
2022-08-26T10:06:24.086Z,99.90
2022-08-26T10:08:55.887Z,99.90
2022-08-26T10:11:27.420Z,99.80
2022-08-26T10:13:57.955Z,95.10
2022-08-26T10:16:31.000Z,93.50
2022-08-26T10:19:01.964Z,93.40
2022-08-26T10:21:33.947Z,94.80
2022-08-26T10:24:03.714Z,95.30
2022-08-26T10:26:39.314Z,91.20
2022-08-26T10:29:12.345Z,85.70
2022-08-26T10:31:44.247Z,81.20
2022-08-26T10:37:36.348Z,79.00
2022-08-26T10:40:08.820Z,72.60
2022-08-26T10:42:41.354Z,73.50
2022-08-26T10:45:15.298Z,68.50
2022-08-26T10:47:47.128Z,68.90
2022-08-26T10:50:18.166Z,69.10
2022-08-26T10:52:54.004Z,69.50
2022-08-26T10:55:25.848Z,71.20
2022-08-26T10:57:57.809Z,68.20
2022-08-26T11:00:47.071Z,66.30
2022-08-26T11:06:17.017Z,60.40
2022-08-26T11:08:47.876Z,64.80
2022-08-26T11:11:31.845Z,66.50
2022-08-26T11:14:02.228Z,67.00
2022-08-26T11:16:36.586Z,70.10
2022-08-26T11:19:13.071Z,65.90
2022-08-26T11:21:49.521Z,65.70
2022-08-26T11:24:37.350Z,67.80
2022-08-26T11:27:06.098Z,64.40
2022-08-26T11:29:53.580Z,68.70
2022-08-26T11:32:26.088Z,64.80
2022-08-26T11:34:57.058Z,61.90
2022-08-26T11:37:32.402Z,66.10
2022-08-26T11:40:02.853Z,66.10
2022-08-26T11:42:36.984Z,64.90
2022-08-26T11:45:18.636Z,64.40
2022-08-26T11:47:49.243Z,63.00
2022-08-26T11:50:19.899Z,67.00
2022-08-26T11:52:54.366Z,66.80
2022-08-26T11:55:24.144Z,64.80
2022-08-26T11:57:54.159Z,66.40
2022-08-26T12:00:24.338Z,64.40
2022-08-26T12:02:54.177Z,57.70
2022-08-26T12:05:29.436Z,60.80
2022-08-26T12:08:03.483Z,58.90
2022-08-26T12:10:33.832Z,59.00
2022-08-26T12:13:03.351Z,55.50
2022-08-26T12:15:33.079Z,53.20
2022-08-26T12:18:16.553Z,54.30
2022-08-26T12:20:48.413Z,51.10
2022-08-26T12:23:26.890Z,51.40
2022-08-26T12:26:04.021Z,50.80
2022-08-26T12:28:33.196Z,50.40
2022-08-26T12:31:03.011Z,52.10
2022-08-26T12:33:33.954Z,52.80
2022-08-26T12:36:03.155Z,51.00
2022-08-26T12:38:36.917Z,49.90
2022-08-26T12:41:05.725Z,52.60
2022-08-26T12:43:39.708Z,52.50
2022-08-26T12:46:09.621Z,51.00
2022-08-26T12:48:39.843Z,49.70
2022-08-26T12:51:09.286Z,49.20
2022-08-26T12:53:42.891Z,50.10
2022-08-26T12:56:22.637Z,48.30
2022-08-26T12:59:01.749Z,49.40
2022-08-26T13:01:38.083Z,48.60
2022-08-26T13:04:07.793Z,50.30
2022-08-26T13:06:36.496Z,50.80
2022-08-26T13:09:26.559Z,44.20
2022-08-26T13:11:59.234Z,47.50
2022-08-26T13:14:31.199Z,49.60
2022-08-26T13:16:59.924Z,49.40
2022-08-26T13:19:29.965Z,46.70
2022-08-26T13:21:59.783Z,45.10
2022-08-26T13:24:33.616Z,47.00
2022-08-26T13:27:03.006Z,47.00
2022-08-26T13:32:01.830Z,46.00
2022-08-26T13:34:31.021Z,44.90
2022-08-26T13:36:59.921Z,46.70
2022-08-26T13:39:30.462Z,49.40
2022-08-26T13:42:00.320Z,47.40
2022-08-26T13:44:29.121Z,49.10
2022-08-26T13:46:57.885Z,48.30
2022-08-26T13:49:26.923Z,50.00
2022-08-26T13:51:55.588Z,49.60
2022-08-26T13:54:24.410Z,47.50
2022-08-26T13:56:54.474Z,48.10
2022-08-26T13:59:23.268Z,49.50
2022-08-26T14:01:52.057Z,47.70
2022-08-26T14:04:27.187Z,49.00
2022-08-26T14:06:56.310Z,48.30
2022-08-26T14:09:25.097Z,46.30
2022-08-26T14:11:55.419Z,47.30
2022-08-26T14:14:25.119Z,48.70
2022-08-26T14:17:00.026Z,47.70
2022-08-26T14:19:29.711Z,48.30
2022-08-26T14:22:01.114Z,47.50
2022-08-26T14:24:30.429Z,48.30
2022-08-26T14:27:00.552Z,50.10
2022-08-26T14:29:29.307Z,48.00
2022-08-26T14:31:58.917Z,48.80
2022-08-26T14:34:27.687Z,50.30
2022-08-26T14:36:56.528Z,49.20
2022-08-26T14:39:25.617Z,48.90
2022-08-26T14:41:56.558Z,50.20
2022-08-26T14:44:28.200Z,49.50
2022-08-26T14:46:56.886Z,49.30
2022-08-26T14:49:27.346Z,50.80
2022-08-26T14:51:56.461Z,50.70
2022-08-26T14:54:25.314Z,51.40
2022-08-26T14:56:55.814Z,50.70
2022-08-26T14:59:25.521Z,52.60
2022-08-26T15:01:55.913Z,52.90
2022-08-26T15:04:25.329Z,52.50
2022-08-26T15:06:55.274Z,51.80
2022-08-26T15:09:24.118Z,53.90
2022-08-26T15:11:53.165Z,52.20
2022-08-26T15:14:22.061Z,52.50
2022-08-26T15:16:51.421Z,51.40
2022-08-26T15:19:23.248Z,52.60
2022-08-26T15:21:52.602Z,53.30
2022-08-26T15:24:22.355Z,49.60
2022-08-26T15:26:51.260Z,49.70
2022-08-26T15:29:20.337Z,50.40
2022-08-26T15:31:49.173Z,51.00
2022-08-26T15:34:17.988Z,50.70
2022-08-26T15:36:48.802Z,51.20
2022-08-26T15:39:17.923Z,50.40
2022-08-26T15:41:46.779Z,49.90
2022-08-26T15:44:16.983Z,50.70
2022-08-26T15:46:45.982Z,49.70
2022-08-26T15:49:18.527Z,53.10
2022-08-26T15:51:50.505Z,51.60
2022-08-26T15:54:20.702Z,48.80
2022-08-26T15:56:52.274Z,48.00
2022-08-26T15:59:22.153Z,50.40
2022-08-26T16:01:51.497Z,49.70
2022-08-26T16:04:20.425Z,49.40
2022-08-26T16:06:52.233Z,48.30
2022-08-26T16:09:23.867Z,49.90
2022-08-26T16:11:53.799Z,49.40
2022-08-26T16:14:22.506Z,49.90
2022-08-26T16:16:51.734Z,51.60
2022-08-26T16:19:21.088Z,51.90
2022-08-26T16:21:51.629Z,54.00
2022-08-26T16:24:25.920Z,52.10
2022-08-26T16:26:56.061Z,52.50
2022-08-26T16:29:25.867Z,55.20
2022-08-26T16:31:54.786Z,56.00
2022-08-26T16:34:23.692Z,54.70
2022-08-26T16:36:54.227Z,53.80
2022-08-26T16:39:22.919Z,53.30
2022-08-26T16:41:51.662Z,53.60
2022-08-26T16:44:22.058Z,52.90
2022-08-26T16:46:50.896Z,53.90
2022-08-26T16:49:27.178Z,55.10
2022-08-26T16:51:57.217Z,54.80
2022-08-26T16:54:26.302Z,56.30
2022-08-26T16:56:55.002Z,57.30
2022-08-26T16:59:24.126Z,57.90
2022-08-26T17:01:52.886Z,59.90
2022-08-26T17:04:22.041Z,59.60
2022-08-26T17:06:51.222Z,59.00
2022-08-26T17:09:40.350Z,59.10
2022-08-26T17:12:10.177Z,59.30
2022-08-26T17:14:38.954Z,61.20
2022-08-26T17:17:08.322Z,61.10
2022-08-26T17:19:40.930Z,63.60
2022-08-26T17:22:16.285Z,65.60
2022-08-26T17:24:46.281Z,66.50
2022-08-26T17:27:15.266Z,67.00
2022-08-26T17:29:44.652Z,67.50
2022-08-26T17:32:13.432Z,68.50
2022-08-26T17:34:42.561Z,70.00
2022-08-26T17:37:11.224Z,72.60
2022-08-26T17:39:43.946Z,74.50
2022-08-26T17:42:14.016Z,78.00
2022-08-26T17:44:42.805Z,84.00
2022-08-26T17:47:11.461Z,90.70
2022-08-26T17:49:40.816Z,97.60
2022-08-26T17:52:11.580Z,99.90
2022-08-26T17:54:40.355Z,99.90
2022-08-26T17:57:10.814Z,99.90
2022-08-26T17:59:41.494Z,99.90
2022-08-26T18:02:10.195Z,99.90
2022-08-26T18:04:38.878Z,99.90
2022-08-26T18:07:07.676Z,99.90
2022-08-26T18:09:36.831Z,99.90
2022-08-26T18:12:05.736Z,99.90
2022-08-26T18:17:05.438Z,99.90
2022-08-26T18:19:34.163Z,99.90
2022-08-26T18:22:02.800Z,99.90
2022-08-26T18:24:32.287Z,99.90
2022-08-26T18:27:00.999Z,99.90
2022-08-26T18:29:29.606Z,99.90
2022-08-26T18:31:58.334Z,99.90
2022-08-26T18:34:31.634Z,99.90
2022-08-26T18:37:01.130Z,99.90
2022-08-26T18:39:29.862Z,99.90
2022-08-26T18:41:58.858Z,99.90
2022-08-26T18:44:27.421Z,99.90
2022-08-26T18:46:56.161Z,99.90
2022-08-26T18:49:24.766Z,99.90
2022-08-26T18:51:54.905Z,99.90
2022-08-26T18:54:23.597Z,99.90
2022-08-26T18:56:52.442Z,99.90
2022-08-26T18:59:29.634Z,99.90
2022-08-26T19:01:59.640Z,99.90
2022-08-26T19:04:28.592Z,99.90
2022-08-26T19:06:58.506Z,99.90
2022-08-26T19:09:27.385Z,99.90
2022-08-26T19:14:25.254Z,99.90
2022-08-26T19:16:54.277Z,99.90
2022-08-26T19:19:24.633Z,99.90
2022-08-26T19:21:53.803Z,99.90
2022-08-26T19:24:27.285Z,99.90
2022-08-26T19:26:58.400Z,99.90
2022-08-26T19:29:29.084Z,99.90
2022-08-26T19:31:57.902Z,99.90
2022-08-26T19:34:26.684Z,99.90
2022-08-26T19:36:56.934Z,99.90
2022-08-26T19:39:27.667Z,99.90
2022-08-26T19:41:58.049Z,99.90
2022-08-26T19:44:44.406Z,99.90
2022-08-26T19:47:15.965Z,99.90
2022-08-26T19:49:45.755Z,99.90
2022-08-26T19:52:14.506Z,99.90
2022-08-26T19:54:44.442Z,99.90
2022-08-26T19:57:13.048Z,99.90
2022-08-26T19:59:42.259Z,99.90
2022-08-26T20:02:11.599Z,99.90
2022-08-26T20:04:41.651Z,99.90
2022-08-26T20:07:14.218Z,99.90
2022-08-26T20:09:48.674Z,99.90
2022-08-26T20:12:17.414Z,99.90
2022-08-26T20:14:46.059Z,99.90
2022-08-26T20:17:28.859Z,99.90
2022-08-26T20:20:28.498Z,99.90
2022-08-26T20:23:03.729Z,99.90
2022-08-26T20:25:34.416Z,99.90
2022-08-26T20:28:03.508Z,99.90
2022-08-26T20:30:32.296Z,99.90
2022-08-26T20:33:01.074Z,99.90
2022-08-26T20:35:29.659Z,99.90
2022-08-26T20:37:58.279Z,99.90
2022-08-26T20:40:27.297Z,99.90
2022-08-26T20:42:57.303Z,99.90
2022-08-26T20:45:27.161Z,99.90
2022-08-26T20:47:56.370Z,99.90
2022-08-26T20:50:26.149Z,99.90
2022-08-26T20:52:54.767Z,99.90
2022-08-26T20:55:23.685Z,99.90
2022-08-26T20:57:52.490Z,99.90
2022-08-26T21:00:24.588Z,99.90
2022-08-26T21:02:56.678Z,99.90
2022-08-26T21:05:25.423Z,99.90
2022-08-26T21:07:54.087Z,99.90
2022-08-26T21:10:23.095Z,99.90
2022-08-26T21:12:52.273Z,99.90
2022-08-26T21:15:22.384Z,99.90
2022-08-26T21:17:51.183Z,99.90
2022-08-26T21:20:20.791Z,99.90
2022-08-26T21:22:50.199Z,99.90
2022-08-26T21:25:19.398Z,99.90
2022-08-26T21:27:48.077Z,99.90
2022-08-26T21:30:17.073Z,99.90
2022-08-26T21:32:47.123Z,99.90
2022-08-26T21:35:15.882Z,99.90
2022-08-26T21:37:44.539Z,99.90
2022-08-26T21:40:13.541Z,99.90
2022-08-26T21:42:42.416Z,99.90
2022-08-26T21:45:11.405Z,99.90
2022-08-26T21:47:40.837Z,99.90
2022-08-26T21:50:11.071Z,99.90
2022-08-26T21:52:39.755Z,99.90
2022-08-26T21:55:09.277Z,99.90
2022-08-26T21:57:40.938Z,99.90
2022-08-26T22:00:11.624Z,99.90
2022-08-26T22:02:40.486Z,99.90
2022-08-26T22:05:11.176Z,99.90
2022-08-26T22:07:39.876Z,99.90
2022-08-26T22:10:08.769Z,99.90
2022-08-26T22:12:38.075Z,99.90
2022-08-26T22:15:07.291Z,99.90
2022-08-26T22:17:36.088Z,99.90
2022-08-26T22:20:05.246Z,99.90
2022-08-26T22:22:41.691Z,99.90
2022-08-26T22:25:11.598Z,99.90
2022-08-26T22:27:40.531Z,99.90
2022-08-26T22:30:11.897Z,99.90
2022-08-26T22:32:40.510Z,99.90
2022-08-26T22:35:28.062Z,99.90
2022-08-26T22:37:59.896Z,99.90
2022-08-26T22:40:28.771Z,99.90
2022-08-26T22:42:58.829Z,99.90
2022-08-26T22:45:29.385Z,99.90
2022-08-26T22:47:58.594Z,99.90
2022-08-26T22:50:27.842Z,99.90
2022-08-26T22:52:56.428Z,99.90
2022-08-26T22:55:26.726Z,99.90
2022-08-26T22:57:55.385Z,99.90
2022-08-26T23:00:31.877Z,99.90
2022-08-26T23:03:01.353Z,99.90
2022-08-26T23:05:31.036Z,99.90
2022-08-26T23:07:59.771Z,99.90
2022-08-26T23:10:29.767Z,99.90
2022-08-26T23:12:59.024Z,99.90
2022-08-26T23:15:27.763Z,99.90
2022-08-26T23:18:09.697Z,99.90
2022-08-26T23:20:38.806Z,99.90
2022-08-26T23:23:07.973Z,99.90
2022-08-26T23:25:37.996Z,99.90
2022-08-26T23:28:06.599Z,99.90
2022-08-26T23:30:35.579Z,99.90
2022-08-26T23:33:04.222Z,99.90
2022-08-26T23:35:31.996Z,99.90
2022-08-26T23:38:01.845Z,99.90
2022-08-26T23:40:32.344Z,99.90
2022-08-26T23:43:03.540Z,99.90
2022-08-26T23:45:32.777Z,99.90
2022-08-26T23:50:45.212Z,99.90
2022-08-26T23:53:19.406Z,99.90
2022-08-26T23:55:49.277Z,99.90
2022-08-26T23:58:20.483Z,99.90
